Time;durP1;ratioP1;P1;durP2;ratioP2;P2;SDS_P1;SDS_P2;PMS_P1;PMS_P2;Temp;Humidity;BMP_temperature;BMP_pressure;BME280_temperature;BME280_humidity;BME280_pressure;Samples;Min_cycle;Max_cycle;Signal;HPM_P1;HPM_P2
2023/11/12 00:02:04;;;;;;;3.83;2.28;;;;;;;3.24;100.00;96498.75;5061947;28;20132;-65
2023/11/12 00:04:33;;;;;;;7.40;2.88;;;;;;;3.34;100.00;96495.53;5062285;28;20040;-65
2023/11/12 00:07:00;;;;;;;5.75;2.67;;;;;;;3.31;100.00;96485.31;5059206;28;20040;-65
2023/11/12 00:09:27;;;;;;;3.92;2.30;;;;;;;3.40;100.00;96489.28;5054439;28;20055;-65
2023/11/12 00:11:54;;;;;;;4.55;2.22;;;;;;;3.50;100.00;96488.72;5062824;28;20050;-65
2023/11/12 00:14:20;;;;;;;5.05;1.98;;;;;;;3.50;100.00;96478.00;5064036;28;20036;-65
2023/11/12 00:16:47;;;;;;;3.90;2.40;;;;;;;3.29;100.00;96469.47;5062084;28;20028;-65
2023/11/12 00:19:16;;;;;;;4.63;2.40;;;;;;;3.35;100.00;96483.78;5061512;28;20532;-65
2023/11/12 00:21:46;;;;;;;4.50;2.28;;;;;;;3.42;100.00;96486.38;5057934;28;20681;-65
2023/11/12 00:24:13;;;;;;;5.15;1.90;;;;;;;3.50;100.00;96484.19;5066538;28;20052;-65
2023/11/12 00:26:40;;;;;;;3.97;2.40;;;;;;;3.57;100.00;96488.63;5062936;28;20043;-65
2023/11/12 00:29:06;;;;;;;4.40;2.35;;;;;;;3.47;100.00;96481.16;5066221;28;20048;-65
2023/11/12 00:31:33;;;;;;;4.80;2.47;;;;;;;3.51;100.00;96485.81;5063511;28;20123;-65
2023/11/12 00:33:59;;;;;;;4.68;2.35;;;;;;;3.40;100.00;96488.47;5059809;28;20679;-65
2023/11/12 00:36:26;;;;;;;4.78;2.42;;;;;;;3.36;100.00;96472.06;5067541;28;20043;-65
2023/11/12 00:38:53;;;;;;;4.93;2.78;;;;;;;3.36;100.00;96464.81;5067845;28;20064;-65
2023/11/12 00:41:20;;;;;;;4.00;2.40;;;;;;;3.58;100.00;96468.84;5066535;28;20036;-65
2023/11/12 00:43:46;;;;;;;4.00;2.05;;;;;;;3.63;100.00;96458.25;5067843;28;20055;-65
2023/11/12 00:46:15;;;;;;;5.55;2.72;;;;;;;3.40;100.00;96456.34;5050935;28;20043;-65
2023/11/12 00:48:44;;;;;;;4.30;2.83;;;;;;;3.30;100.00;96456.88;5065024;28;20068;-65
2023/11/12 00:51:11;;;;;;;4.65;2.78;;;;;;;3.32;100.00;96452.94;5066360;28;20047;-65
2023/11/12 00:53:38;;;;;;;6.15;2.67;;;;;;;3.26;100.00;96448.50;5065743;28;20033;-65
2023/11/12 00:56:07;;;;;;;3.50;2.03;;;;;;;3.32;100.00;96455.63;5048043;28;20533;-66
2023/11/12 00:58:35;;;;;;;6.22;2.70;;;;;;;3.35;100.00;96446.31;5062625;28;20033;-65
2023/11/12 01:01:02;;;;;;;4.68;2.40;;;;;;;3.46;100.00;96439.38;5065678;28;20499;-65
2023/11/12 01:03:32;;;;;;;6.35;2.83;;;;;;;3.51;100.00;96445.66;5067283;28;20048;-65
2023/11/12 01:06:03;;;;;;;5.60;2.30;;;;;;;3.56;100.00;96441.47;5044770;28;20515;-65
2023/11/12 01:08:30;;;;;;;5.43;2.33;;;;;;;3.41;100.00;96445.41;5066060;28;20040;-65
2023/11/12 01:10:57;;;;;;;4.85;2.28;;;;;;;3.44;100.00;96447.66;5064864;28;20046;-65
2023/11/12 01:13:25;;;;;;;9.65;2.15;;;;;;;3.41;100.00;96448.09;5063684;28;20094;-65
2023/11/12 01:15:52;;;;;;;4.20;2.13;;;;;;;3.31;100.00;96448.63;5064519;28;20112;-65
2023/11/12 01:18:20;;;;;;;3.97;2.30;;;;;;;3.30;100.00;96449.69;5044990;28;20048;-65
2023/11/12 01:20:47;;;;;;;5.55;2.67;;;;;;;3.30;100.00;96443.50;5060671;28;20113;-65
2023/11/12 01:23:14;;;;;;;5.28;2.42;;;;;;;3.34;100.00;96442.00;5066859;28;20070;-66
2023/11/12 01:25:41;;;;;;;5.38;2.13;;;;;;;3.28;100.00;96437.59;5051153;28;20040;-66
2023/11/12 01:28:08;;;;;;;8.07;2.78;;;;;;;3.22;100.00;96437.47;5062762;28;20142;-65
2023/11/12 01:30:35;;;;;;;5.13;3.03;;;;;;;3.21;100.00;96438.47;5065500;28;20040;-65
2023/11/12 01:33:03;;;;;;;6.65;2.42;;;;;;;3.22;100.00;96437.47;5066485;28;20044;-65
2023/11/12 01:35:29;;;;;;;4.57;2.72;;;;;;;3.24;100.00;96434.53;5046031;28;20102;-65
2023/11/12 01:37:58;;;;;;;5.55;2.88;;;;;;;3.22;100.00;96436.63;5046748;28;20051;-65
2023/11/12 01:40:25;;;;;;;6.15;2.70;;;;;;;3.24;100.00;96442.56;5063066;28;20082;-65
2023/11/12 01:42:51;;;;;;;4.03;2.33;;;;;;;3.25;100.00;96439.66;5051068;28;20658;-65
2023/11/12 01:45:18;;;;;;;4.53;2.50;;;;;;;3.27;100.00;96439.44;5053702;28;20542;-65
2023/11/12 01:47:46;;;;;;;4.45;2.47;;;;;;;3.31;100.00;96437.94;5063325;28;20488;-65
2023/11/12 01:50:13;;;;;;;5.43;2.13;;;;;;;3.31;100.00;96437.13;5048140;28;20465;-65
2023/11/12 01:52:42;;;;;;;3.90;2.22;;;;;;;3.32;100.00;96431.53;5064548;28;20090;-65
2023/11/12 01:55:10;;;;;;;4.53;2.22;;;;;;;3.34;100.00;96434.00;5061419;28;20040;-66
2023/11/12 01:57:39;;;;;;;4.18;2.03;;;;;;;3.30;100.00;96425.59;5065953;28;20044;-65
2023/11/12 02:00:10;;;;;;;5.85;2.75;;;;;;;3.30;100.00;96422.09;5050257;28;20074;-65
2023/11/12 02:02:43;;;;;;;3.50;1.98;;;;;;;3.37;100.00;96422.84;5047601;28;20052;-65
2023/11/12 02:05:10;;;;;;;5.50;2.45;;;;;;;3.30;100.00;96419.44;5047393;28;20135;-65
2023/11/12 02:07:42;;;;;;;3.72;2.30;;;;;;;3.27;100.00;96414.56;5064132;28;20036;-65
2023/11/12 02:10:12;;;;;;;4.43;2.25;;;;;;;3.28;100.00;96410.84;5045428;28;20101;-65
2023/11/12 02:12:43;;;;;;;3.97;2.30;;;;;;;3.28;100.00;96413.50;5061786;28;20388;-65
2023/11/12 02:15:11;;;;;;;;;;;;;;;3.31;100.00;96413.06;5047969;28;20041;-65
2023/11/12 02:17:37;;;;;;;3.17;1.70;;;;;;;3.30;100.00;96406.06;5064914;28;19920;-65
2023/11/12 02:20:07;;;;;;;3.85;1.83;;;;;;;3.36;100.00;96403.28;5051701;28;20147;-65
2023/11/12 02:22:34;;;;;;;3.67;1.90;;;;;;;3.37;100.00;96409.47;5069618;28;20036;-65
2023/11/12 02:25:02;;;;;;;5.00;2.35;;;;;;;3.35;100.00;96403.50;5061679;28;20037;-65
2023/11/12 02:27:29;;;;;;;7.10;2.03;;;;;;;3.53;100.00;96399.13;5067419;28;20036;-66
2023/11/12 02:29:56;;;;;;;4.00;1.70;;;;;;;3.48;100.00;96395.28;5060863;28;20118;-65
2023/11/12 02:32:29;;;;;;;3.85;1.85;;;;;;;3.39;100.00;96391.28;5064447;28;20040;-65
2023/11/12 02:34:57;;;;;;;3.75;1.95;;;;;;;3.34;100.00;96385.81;5049132;28;20045;-65
2023/11/12 02:37:24;;;;;;;2.78;1.67;;;;;;;3.31;100.00;96386.31;5065449;28;20036;-65
2023/11/12 02:39:51;;;;;;;4.15;1.80;;;;;;;3.42;100.00;96379.34;5065503;28;20041;-65
2023/11/12 02:42:21;;;;;;;4.82;1.77;;;;;;;3.37;100.00;96378.16;5064351;28;20051;-65
2023/11/12 02:44:49;;;;;;;2.58;1.50;;;;;;;3.38;100.00;96374.44;5061896;28;20044;-65
2023/11/12 02:47:16;;;;;;;3.75;1.60;;;;;;;3.29;100.00;96375.00;5063565;28;20033;-65
2023/11/12 02:50:08;;;;;;;4.40;1.80;;;;;;;2.87;100.00;96371.28;5063866;28;20044;-65
2023/11/12 02:52:35;;;;;;;3.90;1.90;;;;;;;2.67;100.00;96364.34;5042979;28;20531;-65
2023/11/12 02:55:02;;;;;;;4.25;1.42;;;;;;;2.56;100.00;96370.47;5046316;28;20060;-65
2023/11/12 02:57:28;;;;;;;4.45;1.85;;;;;;;2.49;100.00;96356.34;5039273;28;20037;-65
2023/11/12 02:59:55;;;;;;;5.15;1.80;;;;;;;2.29;100.00;96346.75;5060108;28;20052;-65
2023/11/12 03:02:22;;;;;;;3.55;1.60;;;;;;;1.86;100.00;96348.44;5045446;28;20040;-65
2023/11/12 03:04:49;;;;;;;4.35;1.75;;;;;;;1.54;100.00;96342.19;5064236;28;20040;-65
2023/11/12 03:07:18;;;;;;;4.72;1.83;;;;;;;1.61;100.00;96341.28;5063281;28;20037;-65
2023/11/12 03:09:47;;;;;;;3.40;1.60;;;;;;;1.57;100.00;96340.94;5064596;28;20047;-65
2023/11/12 03:12:13;;;;;;;4.05;1.77;;;;;;;1.65;100.00;96335.31;5063750;28;20052;-65
2023/11/12 03:14:43;;;;;;;3.78;1.80;;;;;;;1.68;100.00;96326.88;5044885;28;20078;-65
2023/11/12 03:17:09;;;;;;;2.92;1.70;;;;;;;1.61;100.00;96328.78;5062819;28;20029;-66
2023/11/12 03:19:37;;;;;;;4.47;1.75;;;;;;;1.13;100.00;96325.72;5062853;28;20048;-65
2023/11/12 03:22:05;;;;;;;2.95;1.50;;;;;;;0.77;100.00;96325.34;5060549;28;20039;-65
2023/11/12 03:24:31;;;;;;;3.55;1.58;;;;;;;0.62;100.00;96330.97;5062872;28;20042;-65
2023/11/12 03:26:58;;;;;;;2.70;1.40;;;;;;;0.49;100.00;96334.53;5062220;28;20045;-66
2023/11/12 03:29:25;;;;;;;2.72;1.50;;;;;;;0.43;100.00;96338.03;5063466;28;20037;-65
2023/11/12 03:31:53;;;;;;;2.55;1.30;;;;;;;0.45;100.00;96340.50;5044788;28;20037;-65
2023/11/12 03:34:20;;;;;;;4.10;1.95;;;;;;;0.59;100.00;96341.25;5062704;28;20040;-65
2023/11/12 03:36:46;;;;;;;4.93;1.90;;;;;;;0.56;100.00;96336.34;5057220;28;20115;-65
2023/11/12 03:39:14;;;;;;;3.83;2.15;;;;;;;0.55;100.00;96332.84;5045957;28;20038;-65
2023/11/12 03:41:41;;;;;;;4.50;1.73;;;;;;;0.56;100.00;96342.50;5061635;28;20165;-66
2023/11/12 03:44:07;;;;;;;3.53;1.70;;;;;;;0.57;100.00;96330.81;5064943;28;20040;-65
2023/11/12 03:46:37;;;;;;;4.88;1.60;;;;;;;0.58;100.00;96331.59;5062601;28;20036;-65
2023/11/12 03:49:04;;;;;;;3.95;1.70;;;;;;;0.60;100.00;96334.88;5062806;28;20672;-65
2023/11/12 03:51:32;;;;;;;5.15;2.05;;;;;;;0.58;100.00;96331.59;5060215;28;20044;-65
2023/11/12 03:54:02;;;;;;;2.92;1.83;;;;;;;0.51;100.00;96331.63;5065818;28;20053;-65
2023/11/12 03:56:30;;;;;;;6.72;1.80;;;;;;;0.56;100.00;96323.84;5043218;28;20503;-65
2023/11/12 03:58:57;;;;;;;7.13;2.22;;;;;;;0.61;100.00;96321.34;5064422;28;20044;-65
2023/11/12 04:01:24;;;;;;;3.95;2.20;;;;;;;0.77;100.00;96324.53;5061797;28;20054;-65
2023/11/12 04:03:51;;;;;;;3.47;1.70;;;;;;;0.74;100.00;96308.97;5063229;28;20032;-65
2023/11/12 04:06:19;;;;;;;4.00;1.50;;;;;;;0.50;100.00;96290.06;5062276;28;20072;-65
2023/11/12 04:08:46;;;;;;;3.70;1.52;;;;;;;0.52;100.00;96293.34;5044570;28;20040;-65
2023/11/12 04:11:13;;;;;;;4.10;1.92;;;;;;;0.54;100.00;96295.75;5061180;28;20048;-65
2023/11/12 04:13:40;;;;;;;3.55;1.73;;;;;;;0.35;100.00;96280.53;5046629;28;20044;-65
2023/11/12 04:16:08;;;;;;;5.18;1.92;;;;;;;0.18;100.00;96284.72;5060802;28;20047;-65
2023/11/12 04:18:36;;;;;;;4.50;1.80;;;;;;;0.10;100.00;96285.75;5063169;28;20642;-66
2023/11/12 04:21:05;;;;;;;4.15;1.92;;;;;;;0.14;100.00;96286.97;5041126;28;20619;-65
2023/11/12 04:23:32;;;;;;;3.70;2.30;;;;;;;0.42;100.00;96308.94;5062251;28;20048;-65
2023/11/12 04:25:59;;;;;;;5.50;2.22;;;;;;;0.31;100.00;96287.31;5061993;28;20049;-65
2023/11/12 04:28:27;;;;;;;4.13;2.10;;;;;;;0.42;100.00;96290.31;5061312;28;20040;-65
2023/11/12 04:30:55;;;;;;;4.78;2.13;;;;;;;0.14;100.00;96276.31;5043983;28;20053;-65
2023/11/12 04:33:21;;;;;;;4.45;2.10;;;;;;;0.18;100.00;96277.53;5062286;28;20050;-65
2023/11/12 04:35:49;;;;;;;4.45;2.13;;;;;;;0.11;100.00;96279.44;5060667;28;20041;-65
2023/11/12 04:38:17;;;;;;;5.57;1.90;;;;;;;0.06;100.00;96274.72;5025154;28;20091;-65
2023/11/12 04:40:47;;;;;;;3.85;1.80;;;;;;;0.07;100.00;96279.00;5043113;28;20041;-65
2023/11/12 04:43:15;;;;;;;4.25;1.85;;;;;;;0.38;100.00;96304.03;5065477;28;20046;-65
2023/11/12 04:45:42;;;;;;;4.82;1.60;;;;;;;0.52;100.00;96310.13;5061672;28;20040;-65
2023/11/12 04:48:09;;;;;;;3.55;1.92;;;;;;;0.27;100.00;96274.63;5062121;28;20040;-65
2023/11/12 04:50:37;;;;;;;3.40;1.95;;;;;;;0.05;100.00;96262.47;5057856;28;20127;-65
2023/11/12 04:53:05;;;;;;;3.58;1.75;;;;;;;0.25;100.00;96274.81;5061539;28;20040;-65
2023/11/12 04:55:31;;;;;;;4.93;2.00;;;;;;;0.44;100.00;96286.41;5062192;28;20094;-65
2023/11/12 04:57:58;;;;;;;3.30;1.70;;;;;;;0.57;100.00;96276.69;5058722;28;20037;-66
2023/11/12 05:00:25;;;;;;;3.03;1.55;;;;;;;0.43;100.00;96262.63;5061293;28;20037;-65
2023/11/12 05:02:52;;;;;;;5.15;2.20;;;;;;;0.54;100.00;96261.13;5061699;28;20538;-65
2023/11/12 05:05:18;;;;;;;3.17;1.65;;;;;;;0.54;100.00;96267.28;5060811;28;20109;-65
2023/11/12 05:07:45;;;;;;;3.15;1.70;;;;;;;0.70;100.00;96265.94;5060158;28;20040;-65
2023/11/12 05:10:12;;;;;;;5.03;2.03;;;;;;;0.70;100.00;96262.47;5068764;28;20473;-65
2023/11/12 05:12:39;;;;;;;5.47;2.30;;;;;;;0.74;100.00;96269.81;5062197;28;20503;-65
2023/11/12 05:15:07;;;;;;;10.02;3.58;;;;;;;0.75;100.00;96276.78;5045963;28;20177;-65
2023/11/12 05:17:35;;;;;;;7.10;3.13;;;;;;;0.73;100.00;96284.19;5062781;28;20035;-65
2023/11/12 05:20:04;;;;;;;8.30;3.03;;;;;;;0.74;100.00;96290.34;5063210;28;20036;-65
2023/11/12 05:22:31;;;;;;;6.78;3.20;;;;;;;0.68;100.00;96280.53;5062623;28;20067;-65
2023/11/12 05:24:58;;;;;;;6.22;3.03;;;;;;;0.69;100.00;96292.81;5063342;28;20052;-65
2023/11/12 05:27:25;;;;;;;7.60;3.05;;;;;;;0.73;100.00;96296.66;5066053;28;20043;-65
2023/11/12 05:29:52;;;;;;;5.93;3.42;;;;;;;0.75;100.00;96302.63;5045572;28;20091;-65
2023/11/12 05:32:21;;;;;;;7.00;2.88;;;;;;;0.74;100.00;96309.78;5065780;28;20049;-65
2023/11/12 05:34:49;;;;;;;5.13;2.97;;;;;;;0.72;100.00;96297.72;5065255;28;20120;-65
2023/11/12 05:37:16;;;;;;;5.90;2.50;;;;;;;0.73;100.00;96299.34;5064997;28;20142;-65
2023/11/12 05:39:43;;;;;;;7.40;3.40;;;;;;;0.72;100.00;96295.03;5067690;28;20510;-65
2023/11/12 05:42:10;;;;;;;8.05;3.15;;;;;;;0.74;100.00;96307.13;5065844;28;20040;-65
2023/11/12 05:44:36;;;;;;;4.53;2.33;;;;;;;0.81;100.00;96304.41;5068810;28;20396;-65
2023/11/12 05:47:03;;;;;;;5.57;2.80;;;;;;;0.89;100.00;96301.47;5064243;28;20046;-66
2023/11/12 05:49:29;;;;;;;7.53;3.03;;;;;;;0.86;100.00;96303.78;5060748;28;20040;-65
2023/11/12 05:51:56;;;;;;;5.60;3.22;;;;;;;0.93;100.00;96309.03;5060456;28;20044;-65
2023/11/12 05:54:23;;;;;;;5.85;2.80;;;;;;;0.84;100.00;96309.31;5064676;28;20048;-65
2023/11/12 05:56:50;;;;;;;6.15;3.00;;;;;;;0.86;100.00;96307.25;5064883;28;20710;-65
2023/11/12 05:59:16;;;;;;;6.32;2.75;;;;;;;0.96;100.00;96317.41;5065273;28;20047;-65
2023/11/12 06:01:43;;;;;;;4.78;2.70;;;;;;;0.88;100.00;96312.34;5064314;28;20041;-65
2023/11/12 06:04:09;;;;;;;4.65;2.55;;;;;;;0.88;100.00;96313.19;5065723;28;20277;-65
2023/11/12 06:06:36;;;;;;;9.02;3.40;;;;;;;0.96;100.00;96312.09;5061053;28;20146;-65
2023/11/12 06:09:02;;;;;;;5.95;2.80;;;;;;;0.98;100.00;96309.22;5064959;28;20040;-65
2023/11/12 06:11:29;;;;;;;5.03;2.78;;;;;;;0.92;100.00;96308.22;5068511;28;20123;-65
2023/11/12 06:13:56;;;;;;;5.53;3.00;;;;;;;0.94;100.00;96319.50;5063298;28;20531;-65
2023/11/12 06:16:22;;;;;;;6.15;2.53;;;;;;;0.95;100.00;96320.31;5064446;28;20033;-65
2023/11/12 06:18:49;;;;;;;5.95;2.97;;;;;;;0.97;100.00;96320.91;5061819;28;20040;-65
2023/11/12 06:21:15;;;;;;;5.50;2.80;;;;;;;0.95;100.00;96325.66;5066039;28;20036;-65
2023/11/12 06:23:43;;;;;;;5.50;2.60;;;;;;;0.93;100.00;96333.03;5059201;28;20132;-65
2023/11/12 06:26:11;;;;;;;7.45;2.97;;;;;;;0.92;100.00;96337.53;5066487;28;20453;-65
2023/11/12 06:28:38;;;;;;;5.70;2.92;;;;;;;0.91;100.00;96343.91;5064164;28;20032;-65
2023/11/12 06:31:05;;;;;;;5.78;3.05;;;;;;;0.92;100.00;96355.41;5061099;28;20040;-65
2023/11/12 06:33:31;;;;;;;5.03;2.60;;;;;;;0.95;100.00;96352.31;5066707;28;20040;-65
2023/11/12 06:35:58;;;;;;;7.45;2.58;;;;;;;1.00;100.00;96349.81;5063798;28;20045;-65
2023/11/12 06:38:25;;;;;;;5.97;2.50;;;;;;;1.07;100.00;96353.22;5063895;28;20064;-65
2023/11/12 06:40:52;;;;;;;5.07;2.90;;;;;;;1.12;100.00;96353.41;5069706;28;20048;-65
2023/11/12 06:43:18;;;;;;;7.78;2.90;;;;;;;1.20;100.00;96357.66;5060437;28;20046;-65
2023/11/12 06:45:45;;;;;;;5.18;2.28;;;;;;;1.23;100.00;96359.06;5061025;28;20048;-65
2023/11/12 06:48:11;;;;;;;7.60;3.13;;;;;;;1.25;100.00;96363.16;5060894;28;20041;-65
2023/11/12 06:50:38;;;;;;;4.63;2.20;;;;;;;1.28;100.00;96368.06;5065235;28;20036;-65
2023/11/12 06:53:04;;;;;;;4.68;2.60;;;;;;;1.32;100.00;96379.09;5045807;28;20044;-65
2023/11/12 06:55:32;;;;;;;5.30;2.97;;;;;;;1.39;100.00;96374.53;5061194;28;20059;-65
2023/11/12 06:57:59;;;;;;;5.07;2.17;;;;;;;1.36;100.00;96366.16;5061501;28;20679;-65
2023/11/12 07:00:26;;;;;;;6.55;2.50;;;;;;;1.26;100.00;96366.66;5064691;28;20048;-65
2023/11/12 07:02:54;;;;;;;4.90;1.95;;;;;;;1.22;100.00;96376.91;5065694;28;20127;-65
2023/11/12 07:05:21;;;;;;;6.18;1.98;;;;;;;1.33;100.00;96372.75;5060512;28;20055;-65
2023/11/12 07:07:48;;;;;;;6.55;2.17;;;;;;;1.45;100.00;96374.69;5061482;28;20131;-65
2023/11/12 07:10:14;;;;;;;5.30;2.20;;;;;;;1.48;100.00;96376.94;5062277;28;20037;-65
2023/11/12 07:12:42;;;;;;;6.28;2.17;;;;;;;1.58;100.00;96374.56;5059308;28;20684;-65
2023/11/12 07:15:09;;;;;;;4.47;2.05;;;;;;;1.58;100.00;96371.09;5043690;28;20639;-65
2023/11/12 07:17:36;;;;;;;5.82;2.63;;;;;;;1.56;100.00;96379.31;5061967;28;20040;-65
2023/11/12 07:20:05;;;;;;;4.90;2.70;;;;;;;1.59;100.00;96378.06;5063173;28;20040;-65
2023/11/12 07:22:35;;;;;;;6.18;2.85;;;;;;;1.54;100.00;96376.03;5060559;28;20124;-65
2023/11/12 07:25:03;;;;;;;8.65;2.65;;;;;;;1.55;100.00;96367.03;5062965;28;20045;-65
2023/11/12 07:27:31;;;;;;;4.97;2.40;;;;;;;1.58;100.00;96385.25;5059760;28;20040;-65
2023/11/12 07:29:58;;;;;;;4.10;2.33;;;;;;;1.67;100.00;96377.78;5064048;28;20029;-65
2023/11/12 07:32:25;;;;;;;5.45;2.35;;;;;;;1.67;100.00;96383.94;5063052;28;20047;-65
2023/11/12 07:34:52;;;;;;;3.70;2.17;;;;;;;1.67;100.00;96383.94;5058876;28;20040;-65
2023/11/12 07:37:19;;;;;;;5.32;2.60;;;;;;;1.68;100.00;96380.25;5063613;28;20044;-65
2023/11/12 07:39:47;;;;;;;3.97;2.20;;;;;;;1.72;100.00;96385.13;5063434;28;20087;-66
2023/11/12 07:42:14;;;;;;;4.60;2.17;;;;;;;1.77;100.00;96378.09;5065126;28;20044;-65
2023/11/12 07:44:40;;;;;;;5.18;2.42;;;;;;;1.83;100.00;96383.63;5060412;28;20056;-66
2023/11/12 07:47:07;;;;;;;4.57;2.00;;;;;;;1.86;100.00;96383.97;5065558;28;20037;-65
2023/11/12 07:49:33;;;;;;;7.53;2.60;;;;;;;1.92;100.00;96383.09;5065607;28;20043;-65
2023/11/12 07:52:00;;;;;;;8.02;2.67;;;;;;;2.03;100.00;96376.19;5062997;28;20044;-65
2023/11/12 07:54:27;;;;;;;8.55;2.40;;;;;;;2.18;100.00;96375.81;5062235;28;20032;-65
2023/11/12 07:56:54;;;;;;;5.75;2.42;;;;;;;2.19;100.00;96385.50;5060956;28;20074;-66
2023/11/12 07:59:20;;;;;;;4.15;2.20;;;;;;;2.21;100.00;96379.91;5061488;28;20043;-66
2023/11/12 08:01:48;;;;;;;9.88;2.88;;;;;;;2.23;100.00;96388.53;5059472;28;20044;-65
2023/11/12 08:04:14;;;;;;;6.15;2.25;;;;;;;2.31;100.00;96382.06;5063399;28;20036;-65
2023/11/12 08:06:45;;;;;;;5.10;1.90;;;;;;;2.40;100.00;96379.91;5062028;28;20732;-66
2023/11/12 08:09:12;;;;;;;4.60;2.10;;;;;;;2.45;100.00;96378.22;5058466;28;20047;-66
2023/11/12 08:11:42;;;;;;;5.28;2.10;;;;;;;2.48;100.00;96376.94;5055875;28;20048;-65
2023/11/12 08:14:09;;;;;;;3.75;1.90;;;;;;;2.72;100.00;96383.19;5060132;28;20135;-65
2023/11/12 08:16:36;;;;;;;6.25;1.90;;;;;;;2.90;100.00;96378.84;5060755;28;20040;-66
2023/11/12 08:19:03;;;;;;;6.35;1.58;;;;;;;3.02;100.00;96383.44;5064666;28;20047;-66
2023/11/12 08:21:29;;;;;;;3.40;1.70;;;;;;;3.06;100.00;96373.91;5061458;28;20120;-66
2023/11/12 08:23:58;;;;;;;3.47;1.70;;;;;;;2.95;100.00;96378.97;5060403;28;20063;-64
2023/11/12 08:26:29;;;;;;;4.07;1.90;;;;;;;2.90;100.00;96378.03;5060158;28;20973;-66
2023/11/12 08:28:57;;;;;;;6.60;2.35;;;;;;;2.93;100.00;96382.91;5059139;28;20048;-66
2023/11/12 08:31:25;;;;;;;4.05;2.05;;;;;;;3.04;100.00;96389.34;5060871;28;20067;-66
2023/11/12 08:33:51;;;;;;;4.65;1.88;;;;;;;3.21;100.00;96398.34;5059787;28;20045;-66
2023/11/12 08:36:18;;;;;;;6.20;2.03;;;;;;;3.32;100.00;96391.41;5061670;28;20044;-66
2023/11/12 08:38:45;;;;;;;5.18;2.10;;;;;;;3.39;100.00;96393.97;5060370;28;20940;-65
2023/11/12 08:41:12;;;;;;;3.35;1.60;;;;;;;3.51;100.00;96381.41;5060539;28;20709;-66
2023/11/12 08:43:39;;;;;;;4.00;1.73;;;;;;;3.51;100.00;96389.44;5062951;28;20047;-66
2023/11/12 08:46:06;;;;;;;3.75;1.60;;;;;;;3.68;100.00;96387.97;5057673;28;20551;-66
2023/11/12 08:48:34;;;;;;;4.80;2.00;;;;;;;3.79;100.00;96384.47;5031664;28;20192;-66
2023/11/12 08:51:01;;;;;;;6.25;1.92;;;;;;;3.84;100.00;96391.81;5061959;28;20515;-66
2023/11/12 08:53:28;;;;;;;5.90;2.33;;;;;;;3.77;100.00;96390.06;5061849;28;20044;-66
2023/11/12 08:55:54;;;;;;;6.57;2.67;;;;;;;3.78;100.00;96390.88;5065168;28;20044;-66
2023/11/12 08:58:21;;;;;;;7.07;2.03;;;;;;;3.87;100.00;96392.16;5067722;28;20055;-66
2023/11/12 09:00:48;;;;;;;5.18;2.00;;;;;;;3.84;100.00;96389.94;5064066;28;20040;-66
2023/11/12 09:03:15;;;;;;;4.72;2.15;;;;;;;3.92;100.00;96396.00;5064088;28;20044;-66
2023/11/12 09:05:42;;;;;;;4.20;1.90;;;;;;;4.07;100.00;96401.72;5063415;28;20047;-66
2023/11/12 09:08:08;;;;;;;5.18;1.70;;;;;;;4.16;100.00;96399.47;5065534;28;20555;-67
2023/11/12 09:10:35;;;;;;;4.85;2.15;;;;;;;3.99;100.00;96402.06;5063197;28;20048;-66
2023/11/12 09:13:01;;;;;;;4.47;2.30;;;;;;;4.07;100.00;96409.75;5065056;28;20072;-66
2023/11/12 09:15:28;;;;;;;4.38;1.90;;;;;;;4.12;100.00;96404.50;5065089;28;20040;-66
2023/11/12 09:17:55;;;;;;;6.80;2.30;;;;;;;4.08;100.00;96410.53;5064271;28;20043;-66
2023/11/12 09:20:22;;;;;;;4.78;2.35;;;;;;;3.99;100.00;96404.75;5063399;28;20040;-66
2023/11/12 09:22:49;;;;;;;4.82;2.38;;;;;;;3.84;100.00;96414.03;5063345;28;20036;-66
2023/11/12 09:25:16;;;;;;;4.25;2.28;;;;;;;3.95;100.00;96409.75;5065159;28;20036;-66
2023/11/12 09:27:44;;;;;;;4.65;2.28;;;;;;;4.05;100.00;96413.72;5063602;28;20041;-66
2023/11/12 09:30:11;;;;;;;6.00;2.42;;;;;;;4.15;100.00;96419.28;5063952;28;20041;-66
2023/11/12 09:32:38;;;;;;;6.05;2.95;;;;;;;4.23;100.00;96418.09;5063380;28;20749;-66
2023/11/12 09:35:05;;;;;;;5.47;2.20;;;;;;;4.29;100.00;96409.97;5063179;28;20044;-66
2023/11/12 09:37:32;;;;;;;4.43;2.53;;;;;;;4.48;100.00;96423.22;5061581;28;20040;-66
2023/11/12 09:39:59;;;;;;;4.53;2.72;;;;;;;4.37;100.00;96414.16;5063017;28;20044;-66
2023/11/12 09:42:27;;;;;;;4.28;2.40;;;;;;;4.41;100.00;96412.63;5056468;28;20045;-65
2023/11/12 09:44:59;;;;;;;4.93;2.42;;;;;;;4.34;100.00;96422.66;5063327;28;20047;-66
2023/11/12 09:47:38;;;;;;;5.38;2.80;;;;;;;4.50;100.00;96413.06;5039764;28;20059;-66
2023/11/12 09:50:07;;;;;;;4.80;2.55;;;;;;;4.36;100.00;96425.09;5066513;28;20037;-66
2023/11/12 09:52:34;;;;;;;5.10;2.47;;;;;;;4.43;100.00;96429.25;5048982;28;20128;-66
2023/11/12 09:55:02;;;;;;;6.25;2.63;;;;;;;4.48;100.00;96427.75;5063146;28;20055;-66
2023/11/12 09:57:29;;;;;;;4.93;2.25;;;;;;;4.50;100.00;96429.13;5063879;28;20419;-66
2023/11/12 09:59:55;;;;;;;5.05;2.53;;;;;;;4.54;100.00;96429.50;5065885;28;20045;-66
2023/11/12 10:02:23;;;;;;;6.20;2.90;;;;;;;4.46;100.00;96419.94;5065351;28;20567;-65
2023/11/12 10:05:03;;;;;;;6.63;2.88;;;;;;;4.54;100.00;96422.25;5067678;28;20045;-65
2023/11/12 10:07:30;;;;;;;6.88;2.63;;;;;;;4.65;100.00;96422.47;5065239;28;20102;-65
2023/11/12 10:10:23;;;;;;;6.95;2.80;;;;;;;4.55;100.00;96413.19;5064888;28;20074;-66
2023/11/12 10:12:52;;;;;;;6.15;2.47;;;;;;;4.66;100.00;96429.47;5062922;28;20090;-66
2023/11/12 10:15:30;;;;;;;5.90;2.80;;;;;;;4.72;100.00;96427.72;5064845;28;20470;-66
2023/11/12 10:17:57;;;;;;;5.55;3.40;;;;;;;4.75;100.00;96433.41;5045884;28;20060;-66
2023/11/12 10:20:35;;;;;;;5.40;2.58;;;;;;;4.73;100.00;96434.69;5069698;28;20059;-66
2023/11/12 10:23:02;;;;;;;6.28;2.55;;;;;;;4.72;100.00;96431.19;5063187;28;20247;-66
2023/11/12 10:25:39;;;;;;;6.05;2.90;;;;;;;4.81;100.00;96432.47;5065074;28;20040;-66
2023/11/12 10:28:11;;;;;;;6.30;2.50;;;;;;;4.89;100.00;96427.75;5065848;28;20068;-66
2023/11/12 10:30:38;;;;;;;6.90;2.53;;;;;;;4.77;100.00;96425.94;5063249;28;20535;-66
2023/11/12 10:33:23;;;;;;;4.82;2.30;;;;;;;4.82;100.00;96427.91;5063397;28;20049;-66
2023/11/12 10:35:51;;;;;;;4.90;2.28;;;;;;;4.88;100.00;96418.09;5057916;28;20080;-66
2023/11/12 10:38:18;;;;;;;6.38;2.67;;;;;;;4.95;100.00;96413.41;5066262;28;20052;-66
2023/11/12 10:41:05;;;;;;;4.57;2.72;;;;;;;4.90;100.00;96422.16;5066574;28;20104;-66
2023/11/12 10:43:33;;;;;;;7.47;3.50;;;;;;;4.81;100.00;96413.69;5066171;28;20059;-66
2023/11/12 10:46:04;;;;;;;6.78;3.00;;;;;;;4.86;100.00;96414.84;5063374;28;20048;-66
2023/11/12 10:48:36;;;;;;;4.85;2.90;;;;;;;4.78;100.00;96426.75;5044351;28;20178;-66
2023/11/12 10:51:05;;;;;;;;;;;;;;;4.81;100.00;96415.53;5064588;28;20032;-66
2023/11/12 10:53:33;;;;;;;4.18;2.47;;;;;;;4.81;100.00;96421.72;5064571;28;19981;-66
2023/11/12 10:56:01;;;;;;;4.57;2.72;;;;;;;4.74;100.00;96414.84;5067554;28;20127;-66
2023/11/12 10:58:29;;;;;;;7.20;3.00;;;;;;;4.76;100.00;96418.94;5032743;28;20103;-65
2023/11/12 11:01:01;;;;;;;5.35;3.22;;;;;;;4.77;100.00;96415.22;5064212;28;20033;-66
2023/11/12 11:03:30;;;;;;;5.68;2.90;;;;;;;4.88;100.00;96416.22;5064938;28;20055;-65
2023/11/12 11:06:05;;;;;;;6.13;2.55;;;;;;;4.99;100.00;96416.41;5064433;28;20079;-66
2023/11/12 11:08:34;;;;;;;9.07;3.20;;;;;;;4.97;100.00;96413.97;5066577;28;20448;-65
2023/11/12 11:11:03;;;;;;;5.28;2.45;;;;;;;5.01;100.00;96409.75;5063781;28;20101;-65
2023/11/12 11:13:36;;;;;;;6.65;2.10;;;;;;;5.08;100.00;96406.91;5058909;28;20500;-66
2023/11/12 11:16:03;;;;;;;5.60;3.03;;;;;;;5.18;100.00;96399.06;5062460;28;20159;-66
2023/11/12 11:18:32;;;;;;;5.75;3.00;;;;;;;5.17;100.00;96402.00;5063490;28;20519;-65
2023/11/12 11:21:02;;;;;;;5.50;2.80;;;;;;;5.29;100.00;96397.38;5064035;28;20040;-65
2023/11/12 11:23:41;;;;;;;6.65;2.10;;;;;;;5.28;100.00;96403.81;5062620;28;20716;-65
2023/11/12 11:26:29;;;;;;;6.43;2.10;;;;;;;5.34;100.00;96394.78;5044284;28;20050;-66
2023/11/12 11:29:04;;;;;;;7.47;2.13;;;;;;;5.49;100.00;96395.28;5064672;28;20040;-66
2023/11/12 11:31:39;;;;;;;6.65;2.30;;;;;;;5.33;100.00;96392.31;5064880;28;20086;-66
2023/11/12 11:34:10;;;;;;;3.78;1.73;;;;;;;5.48;100.00;96394.47;5065802;28;20044;-66
2023/11/12 11:36:40;;;;;;;5.95;2.47;;;;;;;5.51;100.00;96393.97;5062557;28;20048;-66
2023/11/12 11:39:10;;;;;;;5.60;2.40;;;;;;;5.53;100.00;96402.59;5046702;28;20043;-66